Time;durP1;ratioP1;P1;durP2;ratioP2;P2;SDS_P1;SDS_P2;PMS_P1;PMS_P2;Temp;Humidity;BMP_temperature;BMP_pressure;BME280_temperature;BME280_humidity;BME280_pressure;Samples;Min_cycle;Max_cycle;Signal;HPM_P1;HPM_P2
2023/05/11 00:01:04;;;;;;;3.55;2.97;;;;;;;;;;2086226;28;20046;-65
2023/05/11 00:02:24;;;;;;;4.07;2.88;;;;;;;;;;2091336;28;20025;-67
2023/05/11 00:03:43;;;;;;;3.95;3.40;;;;;;;;;;2092699;28;20148;-65
2023/05/11 00:05:02;;;;;;;5.57;3.40;;;;;;;;;;2090688;28;20112;-65
2023/05/11 00:06:21;;;;;;;3.92;3.28;;;;;;;;;;2091942;28;20040;-66
2023/05/11 00:07:40;;;;;;;6.38;3.22;;;;;;;;;;2092722;28;20033;-64
2023/05/11 00:08:59;;;;;;;6.60;3.20;;;;;;;;;;2093813;28;20017;-65
2023/05/11 00:10:18;;;;;;;5.93;3.35;;;;;;;;;;2090740;28;20036;-65
2023/05/11 00:11:37;;;;;;;3.58;2.97;;;;;;;;;;2090025;28;20024;-65
2023/05/11 00:12:56;;;;;;;5.63;2.90;;;;;;;;;;2094412;28;20024;-65
2023/05/11 00:14:15;;;;;;;5.88;3.15;;;;;;;;;;2089275;28;20397;-65
2023/05/11 00:15:34;;;;;;;7.22;3.45;;;;;;;;;;2079911;28;20473;-64
2023/05/11 00:16:53;;;;;;;4.00;3.00;;;;;;;;;;2091646;28;20044;-65
2023/05/11 00:18:12;;;;;;;3.78;3.45;;;;;;;;;;2092731;28;20025;-65
2023/05/11 00:19:31;;;;;;;4.65;3.30;;;;;;;;;;2091237;28;21799;-65
2023/05/11 00:20:49;;;;;;;4.68;3.50;;;;;;;;;;2091069;28;20032;-65
2023/05/11 00:22:08;;;;;;;4.05;3.65;;;;;;;;;;2091187;28;20917;-65
2023/05/11 00:23:27;;;;;;;4.20;3.30;;;;;;;;;;2089777;28;20033;-65
2023/05/11 00:24:46;;;;;;;3.83;3.53;;;;;;;;;;2092886;28;20033;-64
2023/05/11 00:26:05;;;;;;;5.47;3.38;;;;;;;;;;2084151;28;20060;-66
2023/05/11 00:27:24;;;;;;;3.30;3.00;;;;;;;;;;2093004;28;20478;-65
2023/05/11 00:28:44;;;;;;;5.97;3.25;;;;;;;;;;2091907;28;20107;-66
2023/05/11 00:30:03;;;;;;;6.32;2.72;;;;;;;;;;2092472;28;20104;-64
2023/05/11 00:31:23;;;;;;;5.88;3.25;;;;;;;;;;2094180;28;20108;-65
2023/05/11 00:32:42;;;;;;;3.70;3.30;;;;;;;;;;2093127;28;20021;-65
2023/05/11 00:34:01;;;;;;;5.03;3.58;;;;;;;;;;2089867;28;20048;-65
2023/05/11 00:35:20;;;;;;;5.60;3.53;;;;;;;;;;2086902;28;20030;-65
2023/05/11 00:36:41;;;;;;;3.80;3.42;;;;;;;;;;2093051;28;20100;-65
2023/05/11 00:38:00;;;;;;;3.10;2.90;;;;;;;;;;2089263;28;20029;-64
2023/05/11 00:39:18;;;;;;;4.32;3.10;;;;;;;;;;2091502;28;20494;-65
2023/05/11 00:40:37;;;;;;;3.53;3.22;;;;;;;;;;2094084;28;20497;-65
2023/05/11 00:41:56;;;;;;;3.63;3.30;;;;;;;;;;2092885;28;20028;-64
2023/05/11 00:43:16;;;;;;;4.00;3.05;;;;;;;;;;2093048;28;20048;-65
2023/05/11 00:44:35;;;;;;;3.65;3.17;;;;;;;;;;2091783;28;20036;-65
2023/05/11 00:45:54;;;;;;;5.60;3.55;;;;;;;;;;2086929;28;20024;-65
2023/05/11 00:47:13;;;;;;;4.63;3.95;;;;;;;;;;2094351;28;20100;-65
2023/05/11 00:48:33;;;;;;;4.00;2.70;;;;;;;;;;2091963;28;20033;-65
2023/05/11 00:49:52;;;;;;;3.70;3.40;;;;;;;;;;2087995;28;20464;-67
2023/05/11 00:51:12;;;;;;;5.35;3.38;;;;;;;;;;2093582;28;20040;-64
2023/05/11 00:52:30;;;;;;;7.68;3.47;;;;;;;;;;2093428;28;20024;-65
2023/05/11 00:53:49;;;;;;;4.70;3.28;;;;;;;;;;2094004;28;20459;-65
2023/05/11 00:55:09;;;;;;;4.70;3.67;;;;;;;;;;2090407;28;20037;-64
2023/05/11 00:56:28;;;;;;;6.00;3.50;;;;;;;;;;2092364;28;20028;-64
2023/05/11 00:57:47;;;;;;;4.00;3.45;;;;;;;;;;2093127;28;20040;-64
2023/05/11 00:59:06;;;;;;;5.57;3.58;;;;;;;;;;2092105;28;20029;-65
2023/05/11 01:00:25;;;;;;;6.07;3.50;;;;;;;;;;2088597;28;20390;-64
2023/05/11 01:01:44;;;;;;;10.90;3.45;;;;;;;;;;2088180;28;20116;-64
2023/05/11 01:03:03;;;;;;;6.90;3.33;;;;;;;;;;2091781;28;20038;-64
2023/05/11 01:04:22;;;;;;;3.60;3.13;;;;;;;;;;2093936;28;20024;-65
2023/05/11 01:05:55;;;;;;;3.75;3.33;;;;;;;;;;2086550;28;20041;-64
2023/05/11 01:07:17;;;;;;;6.00;3.43;;;;;;;;;;2090603;28;21259;-64
2023/05/11 01:09:03;;;;;;;5.28;3.42;;;;;;;;;;2087074;28;20399;-65
2023/05/11 01:10:31;;;;;;;6.68;3.38;;;;;;;;;;2087780;28;20036;-65
2023/05/11 01:12:01;;;;;;;5.03;3.05;;;;;;;;;;2092560;28;20028;-65
2023/05/11 01:13:23;;;;;;;4.18;3.13;;;;;;;;;;2089161;28;20033;-65
2023/05/11 01:14:53;;;;;;;7.22;3.40;;;;;;;;;;2092363;28;20029;-65
2023/05/11 01:16:20;;;;;;;5.35;2.80;;;;;;;;;;2086359;28;20490;-64
2023/05/11 01:17:44;;;;;;;4.82;3.38;;;;;;;;;;2090393;28;20041;-64
2023/05/11 01:19:20;;;;;;;6.43;3.75;;;;;;;;;;2091757;28;20051;-64
2023/05/11 01:20:39;;;;;;;3.85;3.47;;;;;;;;;;2089718;28;20040;-64
2023/05/11 01:21:58;;;;;;;7.00;3.13;;;;;;;;;;2085954;28;20033;-64
2023/05/11 01:23:33;;;;;;;4.18;3.70;;;;;;;;;;2093531;28;20024;-65
2023/05/11 01:25:03;;;;;;;6.55;3.78;;;;;;;;;;2092798;28;20028;-66
2023/05/11 01:26:31;;;;;;;4.63;3.30;;;;;;;;;;2089497;28;20028;-65
2023/05/11 01:28:09;;;;;;;6.03;3.55;;;;;;;;;;2090369;28;21408;-64
2023/05/11 01:29:28;;;;;;;4.65;3.30;;;;;;;;;;2092419;28;20032;-64
2023/05/11 01:30:54;;;;;;;5.85;3.60;;;;;;;;;;2088779;28;20133;-64
2023/05/11 01:32:18;;;;;;;5.00;3.45;;;;;;;;;;2092958;28;20029;-65
2023/05/11 01:33:39;;;;;;;6.00;3.70;;;;;;;;;;2089521;28;20120;-65
2023/05/11 01:35:03;;;;;;;7.47;3.88;;;;;;;;;;2093142;28;20029;-64
2023/05/11 01:36:28;;;;;;;4.78;3.53;;;;;;;;;;2085762;28;20171;-65
2023/05/11 01:37:48;;;;;;;9.65;3.53;;;;;;;;;;2088250;28;20025;-65
2023/05/11 01:39:09;;;;;;;7.60;3.83;;;;;;;;;;2089189;28;20024;-65
2023/05/11 01:40:31;;;;;;;8.07;4.03;;;;;;;;;;2093150;28;20489;-64
2023/05/11 01:41:51;;;;;;;9.02;3.63;;;;;;;;;;2089165;28;20037;-64
2023/05/11 01:43:17;;;;;;;9.15;3.60;;;;;;;;;;2093731;28;20111;-65
2023/05/11 01:44:38;;;;;;;6.88;4.03;;;;;;;;;;2089510;28;20120;-65
2023/05/11 01:45:59;;;;;;;7.05;4.00;;;;;;;;;;2085114;28;20037;-65
2023/05/11 01:47:19;;;;;;;6.55;3.95;;;;;;;;;;2090685;28;20036;-65
2023/05/11 01:48:40;;;;;;;8.57;3.90;;;;;;;;;;2092136;28;20048;-65
2023/05/11 01:49:59;;;;;;;6.13;3.90;;;;;;;;;;2091808;28;20056;-65
2023/05/11 01:51:19;;;;;;;8.07;3.40;;;;;;;;;;2091245;28;20033;-64
2023/05/11 01:52:38;;;;;;;6.47;3.92;;;;;;;;;;2089927;28;20024;-64
2023/05/11 01:53:58;;;;;;;4.53;3.05;;;;;;;;;;2090587;28;20037;-65
2023/05/11 01:55:20;;;;;;;8.68;3.20;;;;;;;;;;2087220;28;20497;-64
2023/05/11 01:56:40;;;;;;;5.60;3.92;;;;;;;;;;2084372;28;20080;-65
2023/05/11 01:57:59;;;;;;;5.90;4.20;;;;;;;;;;2088204;28;20024;-65
2023/05/11 01:59:18;;;;;;;4.40;3.85;;;;;;;;;;2093018;28;20033;-65
2023/05/11 02:00:37;;;;;;;5.85;4.32;;;;;;;;;;2088962;28;20037;-64
2023/05/11 02:01:57;;;;;;;9.52;4.40;;;;;;;;;;2091288;28;20041;-64
2023/05/11 02:03:17;;;;;;;7.22;3.95;;;;;;;;;;2093633;28;20033;-65
2023/05/11 02:04:37;;;;;;;13.80;4.93;;;;;;;;;;2093636;28;20036;-65
2023/05/11 02:05:57;;;;;;;6.82;3.90;;;;;;;;;;2088769;28;20052;-64
2023/05/11 02:07:17;;;;;;;7.63;3.67;;;;;;;;;;2089846;28;20020;-64
2023/05/11 02:08:37;;;;;;;8.02;3.88;;;;;;;;;;2091072;28;20028;-64
2023/05/11 02:09:57;;;;;;;10.90;4.05;;;;;;;;;;2090943;28;20037;-65
2023/05/11 02:11:17;;;;;;;8.10;3.72;;;;;;;;;;2089428;28;20025;-65
2023/05/11 02:12:37;;;;;;;8.55;4.15;;;;;;;;;;2088483;28;20037;-65
2023/05/11 02:13:57;;;;;;;3.92;3.35;;;;;;;;;;2091415;28;20444;-65
2023/05/11 02:15:16;;;;;;;8.32;4.28;;;;;;;;;;2086905;28;20029;-64
2023/05/11 02:16:36;;;;;;;6.25;4.18;;;;;;;;;;2086618;28;20025;-64
2023/05/11 02:17:55;;;;;;;7.13;3.40;;;;;;;;;;2087452;28;20033;-64
2023/05/11 02:19:15;;;;;;;8.40;4.05;;;;;;;;;;2090049;28;20029;-65
2023/05/11 02:20:35;;;;;;;7.35;4.07;;;;;;;;;;2089645;28;20040;-64
2023/05/11 02:21:54;;;;;;;11.05;4.10;;;;;;;;;;2090702;28;20068;-64
2023/05/11 02:23:13;;;;;;;4.97;3.65;;;;;;;;;;2091692;28;20016;-65
2023/05/11 02:24:33;;;;;;;6.68;3.55;;;;;;;;;;2093573;28;20036;-65
2023/05/11 02:25:52;;;;;;;5.90;4.07;;;;;;;;;;2083892;28;20033;-64
2023/05/11 02:27:11;;;;;;;6.10;3.08;;;;;;;;;;2094359;28;20075;-64
2023/05/11 02:28:30;;;;;;;6.55;3.28;;;;;;;;;;2092507;28;20028;-65
2023/05/11 02:29:49;;;;;;;3.47;3.17;;;;;;;;;;2089516;28;20029;-64
2023/05/11 02:31:11;;;;;;;5.38;2.65;;;;;;;;;;2092532;28;20032;-65
2023/05/11 02:32:32;;;;;;;15.13;3.67;;;;;;;;;;2090837;28;20489;-65
2023/05/11 02:33:52;;;;;;;8.90;3.50;;;;;;;;;;2088657;28;20025;-64
2023/05/11 02:35:40;;;;;;;6.50;3.45;;;;;;;;;;2091508;28;20323;-65
2023/05/11 02:37:01;;;;;;;10.40;2.90;;;;;;;;;;2078264;28;20032;-65
2023/05/11 02:38:20;;;;;;;3.58;3.20;;;;;;;;;;2091567;28;20029;-65
2023/05/11 02:39:40;;;;;;;3.45;2.92;;;;;;;;;;2091488;28;20033;-64
2023/05/11 02:41:03;;;;;;;5.93;2.97;;;;;;;;;;2089235;28;20901;-65
2023/05/11 02:42:25;;;;;;;6.18;3.05;;;;;;;;;;2094813;28;20132;-65
2023/05/11 02:43:46;;;;;;;8.38;3.60;;;;;;;;;;2094938;28;20393;-64
2023/05/11 02:45:06;;;;;;;3.60;3.30;;;;;;;;;;2087632;28;20064;-67
2023/05/11 02:46:28;;;;;;;7.63;3.40;;;;;;;;;;2089502;28;20025;-65
2023/05/11 02:47:51;;;;;;;5.68;3.45;;;;;;;;;;2091703;28;20037;-65
2023/05/11 02:49:11;;;;;;;5.25;3.58;;;;;;;;;;2088793;28;20037;-65
2023/05/11 02:50:30;;;;;;;4.57;2.83;;;;;;;;;;2092898;28;20124;-65
2023/05/11 02:51:49;;;;;;;5.85;3.03;;;;;;;;;;2094680;28;20020;-65
2023/05/11 02:53:10;;;;;;;4.57;3.60;;;;;;;;;;2089507;28;20056;-65
2023/05/11 02:54:30;;;;;;;8.05;3.70;;;;;;;;;;2094201;28;20024;-65
2023/05/11 02:55:49;;;;;;;4.50;3.10;;;;;;;;;;2089435;28;20016;-65
2023/05/11 02:57:08;;;;;;;5.80;3.35;;;;;;;;;;2096013;28;20501;-65
2023/05/11 02:58:28;;;;;;;7.63;3.85;;;;;;;;;;2097383;28;20107;-65
2023/05/11 02:59:48;;;;;;;6.93;3.85;;;;;;;;;;2092283;28;20033;-64
2023/05/11 03:01:07;;;;;;;6.55;3.65;;;;;;;;;;2094119;28;20028;-64
2023/05/11 03:02:26;;;;;;;5.60;3.40;;;;;;;;;;2093398;28;20025;-65
2023/05/11 03:03:45;;;;;;;4.25;3.35;;;;;;;;;;2092966;28;20111;-65
2023/05/11 03:05:04;;;;;;;3.65;3.30;;;;;;;;;;2092071;28;20040;-64
2023/05/11 03:06:24;;;;;;;5.25;3.83;;;;;;;;;;2092551;28;20635;-65
2023/05/11 03:07:43;;;;;;;4.78;3.58;;;;;;;;;;2091017;28;20492;-65
2023/05/11 03:09:02;;;;;;;4.07;3.05;;;;;;;;;;2094028;28;20028;-65
2023/05/11 03:10:21;;;;;;;5.03;3.20;;;;;;;;;;2092218;28;20041;-65
2023/05/11 03:11:41;;;;;;;4.07;3.17;;;;;;;;;;2089339;28;20500;-65
2023/05/11 03:13:00;;;;;;;4.30;2.80;;;;;;;;;;2091704;28;20024;-66
2023/05/11 03:14:19;;;;;;;4.43;3.30;;;;;;;;;;2094020;28;20032;-64
2023/05/11 03:15:39;;;;;;;6.90;3.33;;;;;;;;;;2090381;28;20024;-66
2023/05/11 03:16:59;;;;;;;6.55;3.60;;;;;;;;;;2093229;28;20401;-65
2023/05/11 03:18:19;;;;;;;7.90;3.30;;;;;;;;;;2093124;28;20036;-65
2023/05/11 03:19:40;;;;;;;11.27;3.10;;;;;;;;;;2093563;28;20025;-64
2023/05/11 03:20:59;;;;;;;5.85;3.30;;;;;;;;;;2092966;28;20028;-65
2023/05/11 03:22:19;;;;;;;3.88;3.45;;;;;;;;;;2088724;28;20235;-64
2023/05/11 03:23:39;;;;;;;4.97;3.20;;;;;;;;;;2091121;28;20056;-64
2023/05/11 03:24:59;;;;;;;5.72;3.25;;;;;;;;;;2092559;28;20041;-65
2023/05/11 03:26:20;;;;;;;6.55;3.80;;;;;;;;;;2093251;28;20025;-65
2023/05/11 03:27:40;;;;;;;4.50;3.35;;;;;;;;;;2094579;28;20021;-65
2023/05/11 03:28:59;;;;;;;13.95;3.70;;;;;;;;;;2092108;28;20432;-65
2023/05/11 03:30:18;;;;;;;4.10;3.78;;;;;;;;;;2088567;28;20041;-64
2023/05/11 03:31:38;;;;;;;3.53;3.20;;;;;;;;;;2095634;28;20028;-65
2023/05/11 03:32:57;;;;;;;6.70;3.25;;;;;;;;;;2090979;28;20017;-64
2023/05/11 03:34:16;;;;;;;7.63;3.55;;;;;;;;;;2089382;28;20021;-64
2023/05/11 03:35:36;;;;;;;7.60;3.55;;;;;;;;;;2092039;28;20037;-65
2023/05/11 03:36:56;;;;;;;10.23;3.58;;;;;;;;;;2086835;28;20474;-65
2023/05/11 03:38:15;;;;;;;9.88;4.15;;;;;;;;;;2094147;28;20020;-65
2023/05/11 03:39:35;;;;;;;7.88;4.15;;;;;;;;;;2094825;28;20060;-64
2023/05/11 03:40:56;;;;;;;4.53;3.28;;;;;;;;;;2089540;28;20033;-65
2023/05/11 03:42:16;;;;;;;9.43;3.58;;;;;;;;;;2093468;28;20029;-65
2023/05/11 03:43:36;;;;;;;5.05;3.42;;;;;;;;;;2091057;28;20040;-64
2023/05/11 03:44:58;;;;;;;6.32;3.55;;;;;;;;;;2093500;28;20036;-65
2023/05/11 03:46:21;;;;;;;4.22;3.25;;;;;;;;;;2092183;28;20024;-65
2023/05/11 03:47:41;;;;;;;7.18;3.20;;;;;;;;;;2088790;28;20041;-65
2023/05/11 03:49:00;;;;;;;10.70;3.70;;;;;;;;;;2091157;28;20032;-65
2023/05/11 03:50:20;;;;;;;15.10;3.58;;;;;;;;;;2087566;28;20560;-65
2023/05/11 03:51:39;;;;;;;11.68;3.47;;;;;;;;;;2090839;28;20037;-65
2023/05/11 03:52:58;;;;;;;15.18;3.53;;;;;;;;;;2090701;28;20025;-65
2023/05/11 03:54:18;;;;;;;8.52;3.55;;;;;;;;;;2091052;28;20033;-64
2023/05/11 03:55:37;;;;;;;9.15;3.45;;;;;;;;;;2087889;28;20025;-64
2023/05/11 03:56:56;;;;;;;4.57;2.60;;;;;;;;;;2091772;28;20041;-64
2023/05/11 03:58:15;;;;;;;9.55;3.28;;;;;;;;;;2087845;28;20393;-65
2023/05/11 03:59:33;;;;;;;10.98;3.50;;;;;;;;;;2092475;28;20514;-63
2023/05/11 04:00:52;;;;;;;7.57;3.58;;;;;;;;;;2088409;28;20029;-64
2023/05/11 04:02:11;;;;;;;7.90;3.60;;;;;;;;;;2095371;28;20111;-63
2023/05/11 04:03:30;;;;;;;11.05;3.72;;;;;;;;;;2093035;28;20450;-63
2023/05/11 04:04:51;;;;;;;7.05;3.10;;;;;;;;;;2088199;28;20032;-64
2023/05/11 04:06:10;;;;;;;6.43;3.33;;;;;;;;;;2090985;28;20037;-64
2023/05/11 04:07:31;;;;;;;7.07;3.45;;;;;;;;;;2090783;28;20044;-64
2023/05/11 04:08:50;;;;;;;5.35;3.20;;;;;;;;;;2091503;28;20033;-66
2023/05/11 04:10:09;;;;;;;6.43;2.80;;;;;;;;;;2089775;28;20032;-64
2023/05/11 04:11:29;;;;;;;10.68;3.20;;;;;;;;;;2088444;28;20041;-64
2023/05/11 04:12:48;;;;;;;7.15;3.35;;;;;;;;;;2088137;28;20020;-64
2023/05/11 04:14:07;;;;;;;5.07;3.10;;;;;;;;;;2088458;28;20485;-64
2023/05/11 04:15:26;;;;;;;8.27;3.00;;;;;;;;;;2081168;28;20941;-63
2023/05/11 04:16:44;;;;;;;10.85;3.03;;;;;;;;;;2091988;28;20108;-64
2023/05/11 04:18:03;;;;;;;9.52;3.28;;;;;;;;;;2089718;28;20420;-64
2023/05/11 04:19:22;;;;;;;6.65;2.85;;;;;;;;;;2087678;28;20032;-64
2023/05/11 04:20:41;;;;;;;11.50;3.45;;;;;;;;;;2091110;28;20103;-65
2023/05/11 04:22:00;;;;;;;8.50;3.30;;;;;;;;;;2085063;28;20983;-63
2023/05/11 04:23:19;;;;;;;8.02;3.40;;;;;;;;;;2084875;28;20440;-64
2023/05/11 04:24:39;;;;;;;8.02;3.10;;;;;;;;;;2085411;28;20037;-65
2023/05/11 04:25:57;;;;;;;8.25;3.10;;;;;;;;;;2090632;28;20033;-65
2023/05/11 04:27:16;;;;;;;9.68;3.08;;;;;;;;;;2092691;28;20028;-65
2023/05/11 04:28:35;;;;;;;8.93;3.00;;;;;;;;;;2089759;28;20116;-65
2023/05/11 04:29:55;;;;;;;3.20;2.83;;;;;;;;;;2093362;28;20033;-67
2023/05/11 04:31:14;;;;;;;7.38;3.25;;;;;;;;;;2081757;28;20029;-64
2023/05/11 04:32:34;;;;;;;10.35;3.42;;;;;;;;;;2089591;28;20541;-66
2023/05/11 04:33:52;;;;;;;14.88;3.08;;;;;;;;;;2091273;28;20108;-64
2023/05/11 04:35:11;;;;;;;9.52;3.08;;;;;;;;;;2088965;28;20049;-64
2023/05/11 04:36:31;;;;;;;6.25;3.10;;;;;;;;;;2087438;28;20040;-64
2023/05/11 04:37:50;;;;;;;6.07;2.80;;;;;;;;;;2087127;28;20021;-64
2023/05/11 04:39:09;;;;;;;5.05;2.92;;;;;;;;;;2089624;28;20022;-64
2023/05/11 04:40:28;;;;;;;9.95;2.90;;;;;;;;;;2086516;28;20091;-64
2023/05/11 04:41:46;;;;;;;9.65;2.90;;;;;;;;;;2092218;28;20436;-65
2023/05/11 04:43:05;;;;;;;5.55;3.25;;;;;;;;;;2091414;28;20032;-64
2023/05/11 04:44:24;;;;;;;6.80;2.70;;;;;;;;;;2089641;28;20029;-65
2023/05/11 04:45:47;;;;;;;9.18;3.05;;;;;;;;;;2089917;28;20493;-63
2023/05/11 04:47:06;;;;;;;;;;;;;;;;;;2093228;28;20029;-64
2023/05/11 04:48:26;;;;;;;6.90;3.08;;;;;;;;;;2087737;28;19948;-65
2023/05/11 04:49:45;;;;;;;5.68;2.83;;;;;;;;;;2091861;28;20024;-64
2023/05/11 04:51:04;;;;;;;4.47;3.13;;;;;;;;;;2079796;28;20029;-64
2023/05/11 04:52:23;;;;;;;9.93;2.67;;;;;;;;;;2087554;28;20095;-64
2023/05/11 04:53:42;;;;;;;6.07;2.65;;;;;;;;;;2090353;28;20385;-65
2023/05/11 04:55:01;;;;;;;6.93;3.03;;;;;;;;;;2088865;28;20036;-64
2023/05/11 04:56:20;;;;;;;11.23;3.15;;;;;;;;;;2090808;28;20037;-64
2023/05/11 04:57:39;;;;;;;4.78;3.35;;;;;;;;;;2089315;28;20033;-64
2023/05/11 04:58:58;;;;;;;4.97;3.30;;;;;;;;;;2088148;28;20409;-64
2023/05/11 05:00:17;;;;;;;7.38;2.95;;;;;;;;;;2088711;28;20032;-64
2023/05/11 05:01:37;;;;;;;7.07;2.80;;;;;;;;;;2090710;28;20111;-64
2023/05/11 05:02:56;;;;;;;9.38;3.30;;;;;;;;;;2090002;28;20099;-64
2023/05/11 05:04:15;;;;;;;7.70;3.42;;;;;;;;;;2085206;28;20037;-64
2023/05/11 05:05:34;;;;;;;9.02;3.15;;;;;;;;;;2087079;28;20053;-65
2023/05/11 05:06:53;;;;;;;9.73;3.15;;;;;;;;;;2088037;28;20028;-65
2023/05/11 05:08:13;;;;;;;5.00;2.90;;;;;;;;;;2086377;28;20033;-65
2023/05/11 05:09:31;;;;;;;12.55;3.75;;;;;;;;;;2087623;28;20427;-65
2023/05/11 05:10:50;;;;;;;10.63;3.70;;;;;;;;;;2084995;28;20433;-64
2023/05/11 05:12:09;;;;;;;8.95;3.45;;;;;;;;;;2089917;28;20497;-66
2023/05/11 05:13:28;;;;;;;12.20;3.00;;;;;;;;;;2088994;28;20613;-64
2023/05/11 05:14:47;;;;;;;9.38;2.78;;;;;;;;;;2084743;28;20025;-65
2023/05/11 05:16:06;;;;;;;4.75;2.92;;;;;;;;;;2089919;28;20036;-65
2023/05/11 05:17:25;;;;;;;8.85;3.28;;;;;;;;;;2090211;28;20020;-65
2023/05/11 05:18:44;;;;;;;8.60;2.97;;;;;;;;;;2086630;28;20017;-65
2023/05/11 05:20:03;;;;;;;7.22;3.55;;;;;;;;;;2088240;28;20028;-64
2023/05/11 05:21:22;;;;;;;6.03;2.90;;;;;;;;;;2088193;28;20032;-65
2023/05/11 05:22:42;;;;;;;4.00;3.20;;;;;;;;;;2082890;28;20028;-64
2023/05/11 05:24:03;;;;;;;9.30;3.05;;;;;;;;;;2084504;28;20441;-64
2023/05/11 05:25:22;;;;;;;9.13;3.05;;;;;;;;;;2088881;28;21302;-65
2023/05/11 05:26:41;;;;;;;9.63;2.60;;;;;;;;;;2082171;28;20056;-64
2023/05/11 05:28:00;;;;;;;10.27;3.17;;;;;;;;;;2090696;28;20474;-65
2023/05/11 05:29:19;;;;;;;8.98;2.80;;;;;;;;;;2090343;28;20021;-64
2023/05/11 05:30:38;;;;;;;7.78;2.70;;;;;;;;;;2085811;28;20528;-64
2023/05/11 05:31:58;;;;;;;5.82;2.97;;;;;;;;;;2090701;28;20045;-64
2023/05/11 05:33:17;;;;;;;12.38;3.65;;;;;;;;;;2089115;28;20024;-64
2023/05/11 05:34:36;;;;;;;9.55;2.75;;;;;;;;;;2082496;28;20481;-64
2023/05/11 05:35:55;;;;;;;6.32;2.83;;;;;;;;;;2086409;28;20037;-64
2023/05/11 05:37:14;;;;;;;3.75;2.85;;;;;;;;;;2088615;28;20030;-64
2023/05/11 05:38:33;;;;;;;14.02;3.28;;;;;;;;;;2089185;28;20465;-65
2023/05/11 05:39:52;;;;;;;11.73;3.40;;;;;;;;;;2088716;28;20486;-64
2023/05/11 05:41:11;;;;;;;14.70;3.13;;;;;;;;;;2088324;28;20029;-64
2023/05/11 05:42:30;;;;;;;6.28;3.33;;;;;;;;;;2083661;28;20029;-65
2023/05/11 05:43:50;;;;;;;4.95;2.30;;;;;;;;;;2091266;28;20089;-64
2023/05/11 05:45:09;;;;;;;6.50;2.50;;;;;;;;;;2081398;28;20034;-64
2023/05/11 05:46:28;;;;;;;9.27;2.92;;;;;;;;;;2085263;28;20032;-64
2023/05/11 05:47:48;;;;;;;6.07;2.70;;;;;;;;;;2087569;28;20033;-65
2023/05/11 05:49:06;;;;;;;3.90;2.70;;;;;;;;;;2089460;28;20440;-64
2023/05/11 05:50:26;;;;;;;13.35;2.83;;;;;;;;;;2089625;28;20119;-64
2023/05/11 05:51:45;;;;;;;8.73;2.70;;;;;;;;;;2085657;28;20711;-65
2023/05/11 05:53:03;;;;;;;6.10;2.90;;;;;;;;;;2089142;28;21055;-65
2023/05/11 05:54:22;;;;;;;8.55;2.80;;;;;;;;;;2084442;28;20044;-64
2023/05/11 05:55:41;;;;;;;6.68;2.70;;;;;;;;;;2086736;28;20021;-65
2023/05/11 05:57:00;;;;;;;9.52;3.15;;;;;;;;;;2082969;28;20993;-64
2023/05/11 05:58:19;;;;;;;7.55;2.13;;;;;;;;;;2088408;28;20037;-65
2023/05/11 05:59:38;;;;;;;7.55;2.85;;;;;;;;;;2089129;28;20025;-64
2023/05/11 06:00:57;;;;;;;10.88;3.17;;;;;;;;;;2091336;28;20032;-64
2023/05/11 06:02:17;;;;;;;6.70;2.97;;;;;;;;;;2090447;28;20032;-65
2023/05/11 06:03:37;;;;;;;12.85;2.70;;;;;;;;;;2091240;28;20036;-64
2023/05/11 06:04:57;;;;;;;3.72;2.30;;;;;;;;;;2090468;28;20041;-65
2023/05/11 06:06:16;;;;;;;10.35;2.97;;;;;;;;;;2091234;28;20029;-65
2023/05/11 06:07:35;;;;;;;8.85;2.65;;;;;;;;;;2093885;28;20037;-64
2023/05/11 06:08:54;;;;;;;9.40;3.15;;;;;;;;;;2095852;28;20025;-64
2023/05/11 06:10:13;;;;;;;14.30;3.00;;;;;;;;;;2093665;28;20020;-64
2023/05/11 06:11:32;;;;;;;7.47;2.58;;;;;;;;;;2091121;28;20397;-64
2023/05/11 06:12:51;;;;;;;5.20;2.88;;;;;;;;;;2092153;28;20028;-64
2023/05/11 06:14:10;;;;;;;7.05;2.85;;;;;;;;;;2087754;28;20029;-64
2023/05/11 06:15:29;;;;;;;7.97;3.10;;;;;;;;;;2092596;28;20040;-65
2023/05/11 06:16:48;;;;;;;7.95;2.60;;;;;;;;;;2093035;28;20020;-64
2023/05/11 06:18:07;;;;;;;9.98;2.97;;;;;;;;;;2090630;28;20021;-65
2023/05/11 06:19:26;;;;;;;7.05;2.65;;;;;;;;;;2088430;28;20072;-64
2023/05/11 06:20:45;;;;;;;5.80;2.78;;;;;;;;;;2093426;28;20103;-65
2023/05/11 06:22:04;;;;;;;8.75;3.00;;;;;;;;;;2090152;28;20025;-64
2023/05/11 06:23:24;;;;;;;10.02;2.90;;;;;;;;;;2087979;28;20036;-64
2023/05/11 06:24:43;;;;;;;5.15;2.75;;;;;;;;;;2090502;28;20029;-65
2023/05/11 06:26:02;;;;;;;8.98;2.42;;;;;;;;;;2085873;28;20028;-64
2023/05/11 06:27:21;;;;;;;10.05;3.08;;;;;;;;;;2088673;28;20028;-64
2023/05/11 06:28:40;;;;;;;9.98;2.80;;;;;;;;;;2084434;28;20104;-64
2023/05/11 06:29:59;;;;;;;7.20;3.05;;;;;;;;;;2091163;28;20112;-64
2023/05/11 06:31:19;;;;;;;8.85;3.13;;;;;;;;;;2092199;28;20029;-64
2023/05/11 06:32:37;;;;;;;9.48;3.03;;;;;;;;;;2091609;28;20965;-64
2023/05/11 06:33:56;;;;;;;6.32;2.42;;;;;;;;;;2085953;28;20033;-64
2023/05/11 06:35:15;;;;;;;5.45;2.70;;;;;;;;;;2094843;28;20024;-64
2023/05/11 06:36:34;;;;;;;5.45;2.60;;;;;;;;;;2091504;28;20020;-64
2023/05/11 06:37:53;;;;;;;7.18;2.72;;;;;;;;;;2091440;28;20037;-64
2023/05/11 06:39:13;;;;;;;9.02;2.35;;;;;;;;;;2091457;28;20028;-64
2023/05/11 06:40:32;;;;;;;7.25;2.60;;;;;;;;;;2092784;28;20120;-67
2023/05/11 06:41:52;;;;;;;7.55;3.22;;;;;;;;;;2090737;28;20107;-65
2023/05/11 06:43:11;;;;;;;7.78;2.60;;;;;;;;;;2089635;28;20016;-64
2023/05/11 06:44:30;;;;;;;11.77;3.25;;;;;;;;;;2092207;28;20173;-64
2023/05/11 06:45:49;;;;;;;10.73;2.95;;;;;;;;;;2084582;28;21094;-64
2023/05/11 06:47:08;;;;;;;16.40;2.83;;;;;;;;;;2084027;28;20033;-65
2023/05/11 06:48:28;;;;;;;7.47;2.75;;;;;;;;;;2088152;28;20033;-65
2023/05/11 06:49:47;;;;;;;11.57;3.20;;;;;;;;;;2087119;28;20017;-64
2023/05/11 06:51:10;;;;;;;6.30;2.80;;;;;;;;;;2085951;28;20049;-64
2023/05/11 06:52:29;;;;;;;5.57;2.85;;;;;;;;;;2083344;28;20481;-63
2023/05/11 06:53:48;;;;;;;15.10;2.83;;;;;;;;;;2086636;28;20037;-64
2023/05/11 06:55:11;;;;;;;10.98;3.38;;;;;;;;;;2091771;28;20414;-64
2023/05/11 06:56:31;;;;;;;12.27;2.83;;;;;;;;;;2086071;28;20037;-63
2023/05/11 06:57:50;;;;;;;8.48;2.90;;;;;;;;;;2092078;28;20021;-64
2023/05/11 06:59:10;;;;;;;5.00;2.28;;;;;;;;;;2093481;28;20024;-64
2023/05/11 07:00:28;;;;;;;6.25;2.60;;;;;;;;;;2089678;28;20060;-64
2023/05/11 07:01:47;;;;;;;11.85;2.53;;;;;;;;;;2089069;28;20063;-64
2023/05/11 07:03:06;;;;;;;8.40;2.72;;;;;;;;;;2083754;28;20518;-64
2023/05/11 07:04:26;;;;;;;6.03;2.40;;;;;;;;;;2093183;28;20020;-64
2023/05/11 07:05:44;;;;;;;4.85;2.50;;;;;;;;;;2088365;28;20525;-64
2023/05/11 07:07:03;;;;;;;4.32;2.55;;;;;;;;;;2090545;28;20074;-65
2023/05/11 07:08:22;;;;;;;7.03;2.65;;;;;;;;;;2092903;28;20108;-64
2023/05/11 07:09:41;;;;;;;6.10;2.55;;;;;;;;;;2091065;28;20029;-65
2023/05/11 07:11:00;;;;;;;3.50;2.58;;;;;;;;;;2093673;28;20044;-65
2023/05/11 07:12:20;;;;;;;7.40;2.38;;;;;;;;;;2085825;28;20029;-65
2023/05/11 07:13:38;;;;;;;4.57;2.40;;;;;;;;;;2088444;28;20033;-65
2023/05/11 07:14:58;;;;;;;6.97;2.88;;;;;;;;;;2092559;28;20099;-65
2023/05/11 07:16:16;;;;;;;12.40;2.50;;;;;;;;;;2089065;28;20024;-66
2023/05/11 07:17:35;;;;;;;6.93;2.40;;;;;;;;;;2093017;28;20032;-65
2023/05/11 07:18:55;;;;;;;9.85;3.40;;;;;;;;;;2090351;28;20659;-64
2023/05/11 07:20:14;;;;;;;6.78;2.58;;;;;;;;;;2089729;28;20570;-64
2023/05/11 07:21:33;;;;;;;8.93;2.72;;;;;;;;;;2094718;28;20065;-64
2023/05/11 07:22:57;;;;;;;5.95;2.50;;;;;;;;;;2095112;28;20032;-64
2023/05/11 07:24:16;;;;;;;6.82;2.72;;;;;;;;;;2096935;28;20055;-64
2023/05/11 07:25:35;;;;;;;10.52;2.35;;;;;;;;;;2092821;28;20020;-64
2023/05/11 07:26:55;;;;;;;10.40;2.50;;;;;;;;;;2088647;28;20029;-64
2023/05/11 07:28:14;;;;;;;4.63;2.88;;;;;;;;;;2089942;28;20024;-64
2023/05/11 07:29:33;;;;;;;9.75;2.45;;;;;;;;;;2091033;28;20053;-64
2023/05/11 07:30:52;;;;;;;8.32;3.22;;;;;;;;;;2088082;28;20029;-64
2023/05/11 07:32:12;;;;;;;8.65;2.67;;;;;;;;;;2089392;28;20732;-64
2023/05/11 07:33:33;;;;;;;6.13;2.65;;;;;;;;;;2091432;28;20037;-65
2023/05/11 07:34:52;;;;;;;7.40;3.22;;;;;;;;;;2085137;28;20029;-65
2023/05/11 07:36:10;;;;;;;7.25;2.38;;;;;;;;;;2089285;28;20104;-64
2023/05/11 07:37:29;;;;;;;8.48;2.78;;;;;;;;;;2092794;28;20033;-64
2023/05/11 07:38:48;;;;;;;3.03;2.72;;;;;;;;;;2090243;28;20024;-64
2023/05/11 07:40:07;;;;;;;6.03;2.83;;;;;;;;;;2088438;28;20649;-64
2023/05/11 07:41:27;;;;;;;6.82;2.60;;;;;;;;;;2093393;28;20099;-65
2023/05/11 07:42:46;;;;;;;10.43;2.55;;;;;;;;;;2086156;28;20495;-63
2023/05/11 07:44:05;;;;;;;5.50;2.60;;;;;;;;;;2091173;28;20032;-64
2023/05/11 07:45:24;;;;;;;6.43;2.45;;;;;;;;;;2085929;28;20028;-65
2023/05/11 07:46:43;;;;;;;6.07;2.50;;;;;;;;;;2086935;28;20689;-64
2023/05/11 07:48:02;;;;;;;9.02;2.42;;;;;;;;;;2090885;28;20115;-65
2023/05/11 07:49:21;;;;;;;9.23;2.78;;;;;;;;;;2090360;28;20040;-65
2023/05/11 07:50:41;;;;;;;7.95;2.30;;;;;;;;;;2090198;28;20028;-64
2023/05/11 07:52:00;;;;;;;5.72;2.28;;;;;;;;;;2092940;28;20035;-64
2023/05/11 07:53:19;;;;;;;8.55;2.70;;;;;;;;;;2091275;28;20021;-64
2023/05/11 07:54:38;;;;;;;7.20;2.40;;;;;;;;;;2091875;28;20477;-64
2023/05/11 07:55:59;;;;;;;7.60;3.00;;;;;;;;;;2086496;28;20032;-64
2023/05/11 07:57:18;;;;;;;4.20;2.47;;;;;;;;;;2093455;28;20433;-67
2023/05/11 07:58:37;;;;;;;11.32;2.65;;;;;;;;;;2094896;28;20033;-65